sensor_id;sensor_type;location;lat;lon;timestamp;temperature;humidity
65034;DHT22;51601;51.356;12.458;2023-08-07T00:02:25;16.30;99.90
65034;DHT22;51601;51.356;12.458;2023-08-07T00:06:43;16.30;99.90
65034;DHT22;51601;51.356;12.458;2023-08-07T00:11:10;16.20;99.90
65034;DHT22;51601;51.356;12.458;2023-08-07T00:15:29;16.20;99.90
65034;DHT22;51601;51.356;12.458;2023-08-07T00:19:46;16.20;99.90
65034;DHT22;51601;51.356;12.458;2023-08-07T00:24:04;16.20;99.90
65034;DHT22;51601;51.356;12.458;2023-08-07T00:28:24;16.20;99.90
65034;DHT22;51601;51.356;12.458;2023-08-07T00:32:43;16.20;99.90
65034;DHT22;51601;51.356;12.458;2023-08-07T00:37:05;16.20;99.90
65034;DHT22;51601;51.356;12.458;2023-08-07T00:41:23;16.10;99.90
65034;DHT22;51601;51.356;12.458;2023-08-07T00:45:45;16.10;99.90
65034;DHT22;51601;51.356;12.458;2023-08-07T00:50:06;16.10;99.90
65034;DHT22;51601;51.356;12.458;2023-08-07T00:54:26;16.10;99.90
65034;DHT22;51601;51.356;12.458;2023-08-07T00:58:44;16.10;99.90
65034;DHT22;51601;51.356;12.458;2023-08-07T01:03:05;16.20;99.90
65034;DHT22;51601;51.356;12.458;2023-08-07T01:07:27;16.20;99.90
65034;DHT22;51601;51.356;12.458;2023-08-07T01:11:57;16.20;99.90
65034;DHT22;51601;51.356;12.458;2023-08-07T01:16:42;16.20;99.90
65034;DHT22;51601;51.356;12.458;2023-08-07T01:21:04;16.30;99.90
65034;DHT22;51601;51.356;12.458;2023-08-07T01:25:23;16.30;99.90
65034;DHT22;51601;51.356;12.458;2023-08-07T01:29:48;16.30;99.90
65034;DHT22;51601;51.356;12.458;2023-08-07T01:34:12;16.20;99.90
65034;DHT22;51601;51.356;12.458;2023-08-07T01:38:34;16.20;99.90
65034;DHT22;51601;51.356;12.458;2023-08-07T01:42:56;16.20;99.90
65034;DHT22;51601;51.356;12.458;2023-08-07T01:47:14;16.20;99.90
65034;DHT22;51601;51.356;12.458;2023-08-07T01:51:35;16.20;99.90
65034;DHT22;51601;51.356;12.458;2023-08-07T01:55:53;16.20;99.90
65034;DHT22;51601;51.356;12.458;2023-08-07T02:00:12;16.20;99.90
65034;DHT22;51601;51.356;12.458;2023-08-07T02:04:32;16.20;99.90
65034;DHT22;51601;51.356;12.458;2023-08-07T02:08:50;16.10;99.90
65034;DHT22;51601;51.356;12.458;2023-08-07T02:13:08;16.10;99.90
65034;DHT22;51601;51.356;12.458;2023-08-07T02:17:28;16.10;99.90
65034;DHT22;51601;51.356;12.458;2023-08-07T02:21:47;16.10;99.90
65034;DHT22;51601;51.356;12.458;2023-08-07T02:26:05;16.10;99.90
65034;DHT22;51601;51.356;12.458;2023-08-07T02:30:23;16.10;99.90
65034;DHT22;51601;51.356;12.458;2023-08-07T02:34:44;16.10;99.90
65034;DHT22;51601;51.356;12.458;2023-08-07T02:39:03;16.10;99.90
65034;DHT22;51601;51.356;12.458;2023-08-07T02:43:20;16.10;99.90
65034;DHT22;51601;51.356;12.458;2023-08-07T02:47:38;16.00;99.90
65034;DHT22;51601;51.356;12.458;2023-08-07T02:51:58;16.00;99.90
65034;DHT22;51601;51.356;12.458;2023-08-07T02:56:15;15.90;99.90
65034;DHT22;51601;51.356;12.458;2023-08-07T03:00:34;15.90;99.90
65034;DHT22;51601;51.356;12.458;2023-08-07T03:04:54;15.90;99.90
65034;DHT22;51601;51.356;12.458;2023-08-07T03:09:13;15.80;99.90
65034;DHT22;51601;51.356;12.458;2023-08-07T03:13:30;15.80;99.90
65034;DHT22;51601;51.356;12.458;2023-08-07T03:17:48;15.60;99.90
65034;DHT22;51601;51.356;12.458;2023-08-07T03:22:06;15.60;99.90
65034;DHT22;51601;51.356;12.458;2023-08-07T03:26:25;15.50;99.90
65034;DHT22;51601;51.356;12.458;2023-08-07T03:30:42;15.40;99.90
65034;DHT22;51601;51.356;12.458;2023-08-07T03:35:04;15.30;99.90
65034;DHT22;51601;51.356;12.458;2023-08-07T03:39:21;15.20;99.90
65034;DHT22;51601;51.356;12.458;2023-08-07T03:43:41;15.20;99.90
65034;DHT22;51601;51.356;12.458;2023-08-07T03:48:01;15.10;99.90
65034;DHT22;51601;51.356;12.458;2023-08-07T03:52:19;15.10;99.90
65034;DHT22;51601;51.356;12.458;2023-08-07T03:56:37;15.10;99.90
65034;DHT22;51601;51.356;12.458;2023-08-07T04:00:56;15.10;99.90
65034;DHT22;51601;51.356;12.458;2023-08-07T04:05:16;15.10;99.90
65034;DHT22;51601;51.356;12.458;2023-08-07T04:09:34;15.10;99.90
65034;DHT22;51601;51.356;12.458;2023-08-07T04:13:52;15.10;99.90
65034;DHT22;51601;51.356;12.458;2023-08-07T04:18:11;15.10;99.90
65034;DHT22;51601;51.356;12.458;2023-08-07T04:22:28;15.10;99.90
65034;DHT22;51601;51.356;12.458;2023-08-07T04:26:46;15.10;99.90
65034;DHT22;51601;51.356;12.458;2023-08-07T04:31:04;15.10;99.90
65034;DHT22;51601;51.356;12.458;2023-08-07T04:35:23;15.10;99.90
65034;DHT22;51601;51.356;12.458;2023-08-07T04:39:40;15.10;99.90
65034;DHT22;51601;51.356;12.458;2023-08-07T04:43:58;15.10;99.90
65034;DHT22;51601;51.356;12.458;2023-08-07T04:48:17;15.20;99.90
65034;DHT22;51601;51.356;12.458;2023-08-07T04:52:39;15.20;99.90
65034;DHT22;51601;51.356;12.458;2023-08-07T04:56:55;15.20;99.90
65034;DHT22;51601;51.356;12.458;2023-08-07T05:01:14;15.20;99.90
65034;DHT22;51601;51.356;12.458;2023-08-07T05:05:35;15.20;99.90
65034;DHT22;51601;51.356;12.458;2023-08-07T05:09:54;15.30;99.90
65034;DHT22;51601;51.356;12.458;2023-08-07T05:14:11;15.50;99.90
65034;DHT22;51601;51.356;12.458;2023-08-07T05:18:29;15.60;99.90
65034;DHT22;51601;51.356;12.458;2023-08-07T05:22:47;15.60;99.90
65034;DHT22;51601;51.356;12.458;2023-08-07T05:27:08;15.70;99.90
65034;DHT22;51601;51.356;12.458;2023-08-07T05:31:26;15.70;99.90
65034;DHT22;51601;51.356;12.458;2023-08-07T05:35:44;15.80;99.90
65034;DHT22;51601;51.356;12.458;2023-08-07T05:40:03;15.80;99.90
65034;DHT22;51601;51.356;12.458;2023-08-07T05:44:22;15.80;99.90
65034;DHT22;51601;51.356;12.458;2023-08-07T05:48:41;15.90;99.90
65034;DHT22;51601;51.356;12.458;2023-08-07T05:52:59;16.00;99.90
65034;DHT22;51601;51.356;12.458;2023-08-07T05:57:18;16.20;99.90
65034;DHT22;51601;51.356;12.458;2023-08-07T06:01:37;16.30;99.90
65034;DHT22;51601;51.356;12.458;2023-08-07T06:05:54;16.60;99.90
65034;DHT22;51601;51.356;12.458;2023-08-07T06:10:12;17.10;99.90
65034;DHT22;51601;51.356;12.458;2023-08-07T06:14:30;17.20;99.90
65034;DHT22;51601;51.356;12.458;2023-08-07T06:18:49;17.20;99.90
65034;DHT22;51601;51.356;12.458;2023-08-07T06:23:06;17.10;99.90
65034;DHT22;51601;51.356;12.458;2023-08-07T06:27:24;16.90;99.90
65034;DHT22;51601;51.356;12.458;2023-08-07T06:31:42;16.80;99.90
65034;DHT22;51601;51.356;12.458;2023-08-07T06:36:02;16.70;99.90
65034;DHT22;51601;51.356;12.458;2023-08-07T06:40:21;16.60;99.90
65034;DHT22;51601;51.356;12.458;2023-08-07T06:44:39;16.60;99.90
65034;DHT22;51601;51.356;12.458;2023-08-07T06:48:57;16.60;99.90
65034;DHT22;51601;51.356;12.458;2023-08-07T06:53:17;16.60;99.90
65034;DHT22;51601;51.356;12.458;2023-08-07T06:57:36;16.70;99.90
65034;DHT22;51601;51.356;12.458;2023-08-07T07:01:54;17.00;99.90
65034;DHT22;51601;51.356;12.458;2023-08-07T07:06:13;17.60;99.90
65034;DHT22;51601;51.356;12.458;2023-08-07T07:10:32;18.40;99.90
65034;DHT22;51601;51.356;12.458;2023-08-07T07:14:49;19.20;95.30
65034;DHT22;51601;51.356;12.458;2023-08-07T07:19:07;19.70;91.70
65034;DHT22;51601;51.356;12.458;2023-08-07T07:23:25;20.20;86.50
65034;DHT22;51601;51.356;12.458;2023-08-07T07:27:44;20.70;80.90
65034;DHT22;51601;51.356;12.458;2023-08-07T07:32:01;20.80;77.40
65034;DHT22;51601;51.356;12.458;2023-08-07T07:36:19;21.00;75.30
65034;DHT22;51601;51.356;12.458;2023-08-07T07:40:37;21.40;76.10
65034;DHT22;51601;51.356;12.458;2023-08-07T07:44:56;22.10;73.70
65034;DHT22;51601;51.356;12.458;2023-08-07T07:49:16;22.80;68.90
65034;DHT22;51601;51.356;12.458;2023-08-07T07:53:34;23.20;66.40
65034;DHT22;51601;51.356;12.458;2023-08-07T07:57:54;23.20;64.00
65034;DHT22;51601;51.356;12.458;2023-08-07T08:02:15;23.20;63.20
65034;DHT22;51601;51.356;12.458;2023-08-07T08:06:34;22.90;63.00
65034;DHT22;51601;51.356;12.458;2023-08-07T08:10:53;22.60;63.10
65034;DHT22;51601;51.356;12.458;2023-08-07T08:15:11;22.60;63.70
65034;DHT22;51601;51.356;12.458;2023-08-07T08:19:30;22.70;63.60
65034;DHT22;51601;51.356;12.458;2023-08-07T08:24:05;22.80;62.20
65034;DHT22;51601;51.356;12.458;2023-08-07T08:28:23;22.60;62.70
65034;DHT22;51601;51.356;12.458;2023-08-07T08:32:42;22.70;63.00
65034;DHT22;51601;51.356;12.458;2023-08-07T08:37:01;22.50;62.50
65034;DHT22;51601;51.356;12.458;2023-08-07T08:41:24;22.20;62.30
65034;DHT22;51601;51.356;12.458;2023-08-07T08:45:42;21.60;63.00
65034;DHT22;51601;51.356;12.458;2023-08-07T08:50:02;21.10;64.60
65034;DHT22;51601;51.356;12.458;2023-08-07T08:54:22;20.70;66.60
65034;DHT22;51601;51.356;12.458;2023-08-07T08:58:42;20.50;69.00
65034;DHT22;51601;51.356;12.458;2023-08-07T09:03:00;21.00;69.00
65034;DHT22;51601;51.356;12.458;2023-08-07T09:07:20;21.50;66.50
65034;DHT22;51601;51.356;12.458;2023-08-07T09:11:41;21.70;64.70
65034;DHT22;51601;51.356;12.458;2023-08-07T09:16:01;21.50;64.30
65034;DHT22;51601;51.356;12.458;2023-08-07T09:20:21;21.00;66.00
65034;DHT22;51601;51.356;12.458;2023-08-07T09:24:39;20.50;67.90
65034;DHT22;51601;51.356;12.458;2023-08-07T09:28:59;20.30;70.30
65034;DHT22;51601;51.356;12.458;2023-08-07T09:33:24;20.20;71.80
65034;DHT22;51601;51.356;12.458;2023-08-07T09:37:43;20.20;73.60
65034;DHT22;51601;51.356;12.458;2023-08-07T09:42:01;20.30;73.00
65034;DHT22;51601;51.356;12.458;2023-08-07T09:46:20;20.40;71.70
65034;DHT22;51601;51.356;12.458;2023-08-07T09:50:37;20.70;71.00
65034;DHT22;51601;51.356;12.458;2023-08-07T09:54:56;20.80;69.60
65034;DHT22;51601;51.356;12.458;2023-08-07T09:59:16;20.90;69.30
65034;DHT22;51601;51.356;12.458;2023-08-07T10:03:36;20.90;68.70
65034;DHT22;51601;51.356;12.458;2023-08-07T10:07:55;21.00;67.60
65034;DHT22;51601;51.356;12.458;2023-08-07T10:12:14;20.90;67.60
65034;DHT22;51601;51.356;12.458;2023-08-07T10:16:35;20.70;68.20
65034;DHT22;51601;51.356;12.458;2023-08-07T10:20:57;20.40;68.60
65034;DHT22;51601;51.356;12.458;2023-08-07T10:25:21;19.90;70.20
65034;DHT22;51601;51.356;12.458;2023-08-07T10:29:42;19.50;72.80
65034;DHT22;51601;51.356;12.458;2023-08-07T10:33:59;19.20;77.20
65034;DHT22;51601;51.356;12.458;2023-08-07T10:38:22;19.10;82.20
65034;DHT22;51601;51.356;12.458;2023-08-07T10:47:33;19.40;89.90
65034;DHT22;51601;51.356;12.458;2023-08-07T10:51:52;19.80;86.40
65034;DHT22;51601;51.356;12.458;2023-08-07T10:56:17;20.10;82.30
65034;DHT22;51601;51.356;12.458;2023-08-07T11:00:37;20.30;78.80
65034;DHT22;51601;51.356;12.458;2023-08-07T11:04:55;20.40;78.20
65034;DHT22;51601;51.356;12.458;2023-08-07T11:09:13;20.50;75.40
65034;DHT22;51601;51.356;12.458;2023-08-07T11:13:33;20.40;74.50
65034;DHT22;51601;51.356;12.458;2023-08-07T11:17:52;20.40;74.60
65034;DHT22;51601;51.356;12.458;2023-08-07T11:22:10;20.20;74.40
65034;DHT22;51601;51.356;12.458;2023-08-07T11:26:28;20.00;76.10
65034;DHT22;51601;51.356;12.458;2023-08-07T11:30:50;19.80;79.20
65034;DHT22;51601;51.356;12.458;2023-08-07T11:35:08;19.80;79.30
65034;DHT22;51601;51.356;12.458;2023-08-07T11:39:25;20.10;75.70
65034;DHT22;51601;51.356;12.458;2023-08-07T11:43:43;20.40;74.60
65034;DHT22;51601;51.356;12.458;2023-08-07T11:48:03;21.10;73.30
65034;DHT22;51601;51.356;12.458;2023-08-07T11:52:23;21.90;68.00
65034;DHT22;51601;51.356;12.458;2023-08-07T11:56:41;22.40;64.10
65034;DHT22;51601;51.356;12.458;2023-08-07T12:00:59;22.50;61.70
65034;DHT22;51601;51.356;12.458;2023-08-07T12:05:21;22.50;60.80
65034;DHT22;51601;51.356;12.458;2023-08-07T12:09:41;22.30;61.40
65034;DHT22;51601;51.356;12.458;2023-08-07T12:14:00;22.10;61.90
65034;DHT22;51601;51.356;12.458;2023-08-07T12:18:20;21.80;62.10
65034;DHT22;51601;51.356;12.458;2023-08-07T12:22:40;21.40;63.90
65034;DHT22;51601;51.356;12.458;2023-08-07T12:26:59;20.90;66.70
65034;DHT22;51601;51.356;12.458;2023-08-07T12:31:18;20.60;69.30
65034;DHT22;51601;51.356;12.458;2023-08-07T12:35:35;20.40;71.30
65034;DHT22;51601;51.356;12.458;2023-08-07T12:39:55;20.30;72.30
65034;DHT22;51601;51.356;12.458;2023-08-07T12:44:33;20.10;70.70
65034;DHT22;51601;51.356;12.458;2023-08-07T12:48:51;20.00;71.50
65034;DHT22;51601;51.356;12.458;2023-08-07T12:53:09;19.70;72.80
65034;DHT22;51601;51.356;12.458;2023-08-07T12:57:28;19.40;74.30
65034;DHT22;51601;51.356;12.458;2023-08-07T13:01:52;19.10;77.30
65034;DHT22;51601;51.356;12.458;2023-08-07T13:06:09;18.90;82.20
65034;DHT22;51601;51.356;12.458;2023-08-07T13:10:28;18.70;88.20
65034;DHT22;51601;51.356;12.458;2023-08-07T13:14:50;18.50;91.60
65034;DHT22;51601;51.356;12.458;2023-08-07T13:19:06;18.50;93.30
65034;DHT22;51601;51.356;12.458;2023-08-07T13:23:25;18.50;93.80
65034;DHT22;51601;51.356;12.458;2023-08-07T13:27:43;18.50;93.70
65034;DHT22;51601;51.356;12.458;2023-08-07T13:32:02;18.50;94.00
65034;DHT22;51601;51.356;12.458;2023-08-07T13:36:25;18.50;94.60
65034;DHT22;51601;51.356;12.458;2023-08-07T13:40:43;18.50;94.90
65034;DHT22;51601;51.356;12.458;2023-08-07T13:45:01;18.30;95.10
65034;DHT22;51601;51.356;12.458;2023-08-07T13:49:21;18.00;96.40
65034;DHT22;51601;51.356;12.458;2023-08-07T13:53:41;17.60;98.90
65034;DHT22;51601;51.356;12.458;2023-08-07T13:57:58;17.40;99.90
65034;DHT22;51601;51.356;12.458;2023-08-07T14:02:16;17.30;99.90
65034;DHT22;51601;51.356;12.458;2023-08-07T14:06:36;17.20;99.90
65034;DHT22;51601;51.356;12.458;2023-08-07T14:10:56;17.10;99.90
65034;DHT22;51601;51.356;12.458;2023-08-07T14:15:14;17.10;99.90
65034;DHT22;51601;51.356;12.458;2023-08-07T14:19:32;17.30;99.90
65034;DHT22;51601;51.356;12.458;2023-08-07T14:23:51;17.60;99.90
65034;DHT22;51601;51.356;12.458;2023-08-07T14:28:08;17.80;99.90
65034;DHT22;51601;51.356;12.458;2023-08-07T14:32:26;17.80;99.90
65034;DHT22;51601;51.356;12.458;2023-08-07T14:36:44;17.50;99.90
65034;DHT22;51601;51.356;12.458;2023-08-07T14:41:05;17.20;99.90
65034;DHT22;51601;51.356;12.458;2023-08-07T14:45:23;16.80;99.90
65034;DHT22;51601;51.356;12.458;2023-08-07T14:49:41;16.50;99.90
65034;DHT22;51601;51.356;12.458;2023-08-07T14:53:59;16.40;99.90
65034;DHT22;51601;51.356;12.458;2023-08-07T14:58:19;16.30;99.90
65034;DHT22;51601;51.356;12.458;2023-08-07T15:02:35;16.30;99.90
65034;DHT22;51601;51.356;12.458;2023-08-07T15:06:53;16.50;99.90
65034;DHT22;51601;51.356;12.458;2023-08-07T15:11:11;16.60;99.90
65034;DHT22;51601;51.356;12.458;2023-08-07T15:15:31;16.80;99.90
65034;DHT22;51601;51.356;12.458;2023-08-07T15:19:54;17.00;99.90
65034;DHT22;51601;51.356;12.458;2023-08-07T15:24:12;17.20;99.90
65034;DHT22;51601;51.356;12.458;2023-08-07T15:28:30;17.40;99.90
65034;DHT22;51601;51.356;12.458;2023-08-07T15:32:49;17.60;99.90
65034;DHT22;51601;51.356;12.458;2023-08-07T15:37:06;17.70;99.90
65034;DHT22;51601;51.356;12.458;2023-08-07T15:41:24;17.80;99.90
65034;DHT22;51601;51.356;12.458;2023-08-07T15:45:44;17.80;99.90
65034;DHT22;51601;51.356;12.458;2023-08-07T15:50:05;17.70;99.90
65034;DHT22;51601;51.356;12.458;2023-08-07T15:54:24;17.50;99.90
65034;DHT22;51601;51.356;12.458;2023-08-07T15:58:42;17.30;99.90
65034;DHT22;51601;51.356;12.458;2023-08-07T16:03:01;17.10;99.90
65034;DHT22;51601;51.356;12.458;2023-08-07T16:07:26;17.00;99.90
65034;DHT22;51601;51.356;12.458;2023-08-07T16:11:46;17.10;99.90
65034;DHT22;51601;51.356;12.458;2023-08-07T16:16:04;17.10;99.90
65034;DHT22;51601;51.356;12.458;2023-08-07T16:20:22;17.10;99.90
65034;DHT22;51601;51.356;12.458;2023-08-07T16:24:41;17.10;99.90
65034;DHT22;51601;51.356;12.458;2023-08-07T16:28:58;17.10;99.90
65034;DHT22;51601;51.356;12.458;2023-08-07T16:33:16;17.10;99.90
65034;DHT22;51601;51.356;12.458;2023-08-07T16:37:34;17.10;99.40
65034;DHT22;51601;51.356;12.458;2023-08-07T16:41:53;17.00;98.60
65034;DHT22;51601;51.356;12.458;2023-08-07T16:46:10;16.90;98.10
65034;DHT22;51601;51.356;12.458;2023-08-07T16:50:28;16.80;96.60
65034;DHT22;51601;51.356;12.458;2023-08-07T16:54:46;16.70;95.20
65034;DHT22;51601;51.356;12.458;2023-08-07T16:59:08;16.70;92.30
65034;DHT22;51601;51.356;12.458;2023-08-07T17:03:25;16.60;90.80
65034;DHT22;51601;51.356;12.458;2023-08-07T17:07:46;16.70;90.20
65034;DHT22;51601;51.356;12.458;2023-08-07T17:12:05;16.80;87.40
65034;DHT22;51601;51.356;12.458;2023-08-07T17:16:24;16.80;85.80
65034;DHT22;51601;51.356;12.458;2023-08-07T17:20:41;16.80;85.40
65034;DHT22;51601;51.356;12.458;2023-08-07T17:24:59;16.70;85.10
65034;DHT22;51601;51.356;12.458;2023-08-07T17:29:17;16.60;85.70
65034;DHT22;51601;51.356;12.458;2023-08-07T17:33:36;16.60;86.20
65034;DHT22;51601;51.356;12.458;2023-08-07T17:37:56;16.60;86.30
65034;DHT22;51601;51.356;12.458;2023-08-07T17:42:14;16.50;86.90
65034;DHT22;51601;51.356;12.458;2023-08-07T17:46:32;16.40;87.00
65034;DHT22;51601;51.356;12.458;2023-08-07T17:50:51;16.30;87.30
65034;DHT22;51601;51.356;12.458;2023-08-07T17:55:11;16.30;87.60
65034;DHT22;51601;51.356;12.458;2023-08-07T17:59:32;16.20;88.90
65034;DHT22;51601;51.356;12.458;2023-08-07T18:03:50;16.20;90.20
65034;DHT22;51601;51.356;12.458;2023-08-07T18:08:10;16.20;90.50
65034;DHT22;51601;51.356;12.458;2023-08-07T18:12:27;16.20;90.80
65034;DHT22;51601;51.356;12.458;2023-08-07T18:16:45;16.20;90.70
65034;DHT22;51601;51.356;12.458;2023-08-07T18:21:03;16.30;90.20
65034;DHT22;51601;51.356;12.458;2023-08-07T18:25:22;16.30;89.40
65034;DHT22;51601;51.356;12.458;2023-08-07T18:29:40;16.30;88.10
65034;DHT22;51601;51.356;12.458;2023-08-07T18:33:57;16.30;87.20
65034;DHT22;51601;51.356;12.458;2023-08-07T18:38:15;16.30;85.70
65034;DHT22;51601;51.356;12.458;2023-08-07T18:42:34;16.30;83.80
65034;DHT22;51601;51.356;12.458;2023-08-07T18:46:54;16.30;82.20
65034;DHT22;51601;51.356;12.458;2023-08-07T18:51:12;16.20;81.60
65034;DHT22;51601;51.356;12.458;2023-08-07T18:55:30;16.20;81.50
65034;DHT22;51601;51.356;12.458;2023-08-07T18:59:50;16.20;80.60
65034;DHT22;51601;51.356;12.458;2023-08-07T19:04:06;16.20;79.80
65034;DHT22;51601;51.356;12.458;2023-08-07T19:08:24;16.20;78.50
65034;DHT22;51601;51.356;12.458;2023-08-07T19:12:43;16.20;77.50
65034;DHT22;51601;51.356;12.458;2023-08-07T19:17:02;16.10;76.70
65034;DHT22;51601;51.356;12.458;2023-08-07T19:21:24;16.20;75.80
65034;DHT22;51601;51.356;12.458;2023-08-07T19:25:42;16.20;74.80
65034;DHT22;51601;51.356;12.458;2023-08-07T19:30:00;16.20;74.30
65034;DHT22;51601;51.356;12.458;2023-08-07T19:34:20;16.20;73.60
65034;DHT22;51601;51.356;12.458;2023-08-07T19:38:39;16.20;73.60
65034;DHT22;51601;51.356;12.458;2023-08-07T19:42:57;16.20;73.30
65034;DHT22;51601;51.356;12.458;2023-08-07T19:47:15;16.20;73.20
65034;DHT22;51601;51.356;12.458;2023-08-07T19:51:53;16.20;73.10
65034;DHT22;51601;51.356;12.458;2023-08-07T19:56:10;16.20;73.20
65034;DHT22;51601;51.356;12.458;2023-08-07T20:00:28;16.20;73.30
65034;DHT22;51601;51.356;12.458;2023-08-07T20:04:47;16.20;73.10
65034;DHT22;51601;51.356;12.458;2023-08-07T20:09:05;16.10;73.10
65034;DHT22;51601;51.356;12.458;2023-08-07T20:13:22;16.10;73.10
65034;DHT22;51601;51.356;12.458;2023-08-07T20:17:40;16.10;73.30
65034;DHT22;51601;51.356;12.458;2023-08-07T20:21:58;16.10;72.80
65034;DHT22;51601;51.356;12.458;2023-08-07T20:26:21;16.10;72.90
65034;DHT22;51601;51.356;12.458;2023-08-07T20:30:41;16.10;73.10
65034;DHT22;51601;51.356;12.458;2023-08-07T20:34:59;16.10;73.00
65034;DHT22;51601;51.356;12.458;2023-08-07T20:39:17;16.10;72.90
65034;DHT22;51601;51.356;12.458;2023-08-07T20:43:36;16.00;73.10
65034;DHT22;51601;51.356;12.458;2023-08-07T20:47:53;15.90;73.60
65034;DHT22;51601;51.356;12.458;2023-08-07T20:52:11;15.80;74.10
65034;DHT22;51601;51.356;12.458;2023-08-07T20:56:29;15.70;74.60
65034;DHT22;51601;51.356;12.458;2023-08-07T21:00:48;15.60;74.90
65034;DHT22;51601;51.356;12.458;2023-08-07T21:05:08;15.60;75.20
65034;DHT22;51601;51.356;12.458;2023-08-07T21:09:26;15.40;75.80
65034;DHT22;51601;51.356;12.458;2023-08-07T21:13:44;15.30;76.50
65034;DHT22;51601;51.356;12.458;2023-08-07T21:18:04;15.20;77.20
65034;DHT22;51601;51.356;12.458;2023-08-07T21:22:23;15.10;77.90
65034;DHT22;51601;51.356;12.458;2023-08-07T21:26:41;15.10;78.80
65034;DHT22;51601;51.356;12.458;2023-08-07T21:30:59;14.90;79.60
65034;DHT22;51601;51.356;12.458;2023-08-07T21:35:19;14.80;80.70
65034;DHT22;51601;51.356;12.458;2023-08-07T21:39:36;14.80;82.00
65034;DHT22;51601;51.356;12.458;2023-08-07T21:43:54;14.70;83.10
65034;DHT22;51601;51.356;12.458;2023-08-07T21:48:12;14.60;84.20
65034;DHT22;51601;51.356;12.458;2023-08-07T21:52:31;14.60;85.30
65034;DHT22;51601;51.356;12.458;2023-08-07T21:56:51;14.50;86.20
65034;DHT22;51601;51.356;12.458;2023-08-07T22:01:09;14.40;87.20
65034;DHT22;51601;51.356;12.458;2023-08-07T22:05:27;14.40;88.40
65034;DHT22;51601;51.356;12.458;2023-08-07T22:09:46;14.30;89.80
65034;DHT22;51601;51.356;12.458;2023-08-07T22:14:03;14.20;90.50
65034;DHT22;51601;51.356;12.458;2023-08-07T22:18:25;14.20;91.30
65034;DHT22;51601;51.356;12.458;2023-08-07T22:22:42;14.10;91.80
65034;DHT22;51601;51.356;12.458;2023-08-07T22:27:02;14.10;92.50
65034;DHT22;51601;51.356;12.458;2023-08-07T22:31:21;14.10;93.20
65034;DHT22;51601;51.356;12.458;2023-08-07T22:35:39;14.00;93.80
65034;DHT22;51601;51.356;12.458;2023-08-07T22:40:02;13.90;94.50
65034;DHT22;51601;51.356;12.458;2023-08-07T22:44:23;13.90;95.30
65034;DHT22;51601;51.356;12.458;2023-08-07T22:48:43;13.90;95.90
65034;DHT22;51601;51.356;12.458;2023-08-07T22:53:01;13.90;96.30
65034;DHT22;51601;51.356;12.458;2023-08-07T22:57:22;13.80;96.50
65034;DHT22;51601;51.356;12.458;2023-08-07T23:01:42;13.80;96.60
65034;DHT22;51601;51.356;12.458;2023-08-07T23:05:58;13.80;96.80
65034;DHT22;51601;51.356;12.458;2023-08-07T23:10:16;13.70;96.90
65034;DHT22;51601;51.356;12.458;2023-08-07T23:14:35;13.60;97.00
65034;DHT22;51601;51.356;12.458;2023-08-07T23:18:54;13.50;97.20
65034;DHT22;51601;51.356;12.458;2023-08-07T23:23:10;13.50;97.50
65034;DHT22;51601;51.356;12.458;2023-08-07T23:27:29;13.40;97.80
65034;DHT22;51601;51.356;12.458;2023-08-07T23:31:47;13.30;98.30
65034;DHT22;51601;51.356;12.458;2023-08-07T23:36:06;13.30;99.00
65034;DHT22;51601;51.356;12.458;2023-08-07T23:40:26;13.20;99.40
65034;DHT22;51601;51.356;12.458;2023-08-07T23:44:44;13.20;99.80
65034;DHT22;51601;51.356;12.458;2023-08-07T23:49:02;13.20;99.90
65034;DHT22;51601;51.356;12.458;2023-08-07T23:53:24;13.20;99.90
65034;DHT22;51601;51.356;12.458;2023-08-07T23:57:41;13.20;99.90
